Time;durP1;ratioP1;P1;durP2;ratioP2;P2;SDS_P1;SDS_P2;PMS_P1;PMS_P2;Temp;Humidity;BMP_temperature;BMP_pressure;BME280_temperature;BME280_humidity;BME280_pressure;Samples;Min_cycle;Max_cycle;Signal;HPM_P1;HPM_P2
2021/12/30 00:00:23;;;;;;;50.37;23.33;;;;;;;-4.94;100.00;100194.39;1719567;82;21294;-74
2021/12/30 00:02:51;;;;;;;45.30;20.03;;;;;;;-4.92;100.00;100195.30;1734591;82;22019;-80
2021/12/30 00:05:18;;;;;;;66.20;27.60;;;;;;;-4.93;100.00;100197.39;1731616;82;21137;-80
2021/12/30 00:07:45;;;;;;;55.40;22.43;;;;;;;-4.89;100.00;100200.51;1739422;82;21663;-79
2021/12/30 00:10:12;;;;;;;56.77;25.90;;;;;;;-4.88;100.00;100200.98;1739359;82;21063;-80
2021/12/30 00:12:38;;;;;;;67.43;28.47;;;;;;;-4.84;100.00;100192.92;1739670;82;22125;-79
2021/12/30 00:15:06;;;;;;;49.73;21.97;;;;;;;-4.85;100.00;100189.48;1739093;82;21014;-77
2021/12/30 00:17:33;;;;;;;54.50;25.47;;;;;;;-4.85;100.00;100197.20;1740671;82;21518;-78
2021/12/30 00:20:00;;;;;;;60.27;27.23;;;;;;;-4.81;100.00;100195.98;1740215;82;21074;-77
2021/12/30 00:22:28;;;;;;;62.77;28.37;;;;;;;-4.79;100.00;100204.18;1740112;82;21078;-75
2021/12/30 00:24:56;;;;;;;62.13;26.03;;;;;;;-4.82;100.00;100204.11;1740493;82;21989;-76
2021/12/30 00:27:22;;;;;;;61.53;26.77;;;;;;;-4.89;100.00;100203.08;1739791;82;21060;-76
2021/12/30 00:29:49;;;;;;;61.23;26.50;;;;;;;-4.93;100.00;100208.95;1739750;82;21030;-76
2021/12/30 00:32:16;;;;;;;63.50;26.20;;;;;;;-4.97;100.00;100206.27;1739482;82;21080;-79
2021/12/30 00:34:42;;;;;;;61.37;25.53;;;;;;;-4.99;100.00;100213.05;1739002;82;21038;-75
2021/12/30 00:37:09;;;;;;;65.07;26.50;;;;;;;-4.99;100.00;100216.52;1739280;82;21796;-76
2021/12/30 00:39:35;;;;;;;56.83;24.33;;;;;;;-4.93;100.00;100214.09;1739026;82;21081;-76
2021/12/30 00:42:02;;;;;;;54.03;23.13;;;;;;;-4.89;100.00;100208.22;1739407;82;21570;-76
2021/12/30 00:44:29;;;;;;;51.03;22.13;;;;;;;-4.89;100.00;100208.22;1740250;82;21055;-75
2021/12/30 00:46:57;;;;;;;49.43;21.57;;;;;;;-4.90;100.00;100205.20;1740544;82;21089;-76
2021/12/30 00:49:24;;;;;;;52.55;22.65;;;;;;;-4.94;100.00;100204.66;1739192;82;21064;-76
2021/12/30 00:51:50;;;;;;;54.90;22.57;;;;;;;-5.03;100.00;100201.84;1739444;82;21623;-76
2021/12/30 00:54:16;;;;;;;55.53;23.90;;;;;;;-5.08;100.00;100208.56;1739352;82;21109;-76
2021/12/30 00:56:43;;;;;;;57.20;25.40;;;;;;;-5.10;100.00;100202.52;1739742;82;21018;-77
2021/12/30 00:59:09;;;;;;;52.50;23.20;;;;;;;-5.09;100.00;100193.55;1739984;82;21105;-76
2021/12/30 01:01:37;;;;;;;64.90;28.10;;;;;;;-5.06;100.00;100196.64;1739845;82;21099;-76
2021/12/30 01:04:04;;;;;;;63.90;27.57;;;;;;;-5.00;100.00;100207.05;1739551;82;21110;-77
2021/12/30 01:06:31;;;;;;;62.97;27.63;;;;;;;-4.99;100.00;100201.11;1739867;82;21039;-76
2021/12/30 01:08:58;;;;;;;62.47;28.27;;;;;;;-4.98;100.00;100197.70;1742331;81;20986;-79
2021/12/30 01:11:25;;;;;;;66.90;27.87;;;;;;;-4.98;100.00;100199.41;1744014;80;21054;-76
2021/12/30 01:14:02;;;;;;;75.73;31.03;;;;;;;-4.97;100.00;100203.70;1744058;82;20994;-75
2021/12/30 01:16:24;;;;;;;77.60;30.43;;;;;;;-4.94;100.00;100199.95;1741033;82;21125;-75
2021/12/30 01:18:59;;;;;;;65.87;28.33;;;;;;;-4.93;100.00;100196.11;1739887;82;21078;-76
2021/12/30 01:21:25;;;;;;;74.93;29.67;;;;;;;-4.95;100.00;100204.61;1738779;82;21081;-76
2021/12/30 01:23:52;;;;;;;82.27;32.33;;;;;;;-4.97;100.00;100204.59;1716223;82;21130;-75
2021/12/30 01:26:19;;;;;;;78.60;32.17;;;;;;;-4.99;100.00;100206.25;1709376;83;21783;-74
2021/12/30 01:28:45;;;;;;;80.83;34.13;;;;;;;-4.98;100.00;100205.41;1683967;85;21062;-78
2021/12/30 01:31:12;;;;;;;76.37;32.93;;;;;;;-4.96;100.00;100199.89;1701412;82;21066;-76
2021/12/30 01:33:39;;;;;;;80.40;33.87;;;;;;;-4.96;100.00;100199.89;1701845;84;21126;-74
2021/12/30 01:36:06;;;;;;;91.50;36.70;;;;;;;-4.93;100.00;100195.25;1701633;84;21030;-74
2021/12/30 01:38:32;;;;;;;88.77;36.60;;;;;;;-4.94;100.00;100194.39;1703180;83;22110;-73
2021/12/30 01:41:01;;;;;;;92.30;38.97;;;;;;;-4.93;100.00;100196.11;1703843;84;21044;-75
2021/12/30 01:43:29;;;;;;;95.20;38.90;;;;;;;-4.92;100.00;100191.45;1703937;84;21154;-74
2021/12/30 01:45:56;;;;;;;98.57;38.50;;;;;;;-4.93;100.00;100196.11;1704216;82;21086;-75
2021/12/30 01:48:22;;;;;;;94.97;39.50;;;;;;;-4.93;100.00;100199.97;1701540;84;21039;-73
2021/12/30 01:50:50;;;;;;;99.10;38.53;;;;;;;-4.90;100.00;100200.07;1701684;84;21151;-75
2021/12/30 01:53:16;;;;;;;96.37;38.43;;;;;;;-4.92;100.00;100197.87;1701625;84;21664;-75
2021/12/30 01:55:43;;;;;;;101.13;40.13;;;;;;;-4.94;100.00;100195.67;1676574;85;21086;-75
2021/12/30 01:58:10;;;;;;;93.07;36.97;;;;;;;-4.97;100.00;100203.70;1701950;84;21108;-75
2021/12/30 02:00:41;;;;;;;100.53;38.90;;;;;;;-4.98;100.00;100204.54;1676635;85;21113;-76
2021/12/30 02:03:09;;;;;;;76.57;32.60;;;;;;;-4.95;100.00;100208.04;1742386;81;21097;-76
2021/12/30 02:05:37;;;;;;;89.97;36.63;;;;;;;-4.90;100.00;100211.62;1769831;81;21014;-75
2021/12/30 02:08:10;;;;;;;86.50;35.17;;;;;;;-4.86;100.00;100212.14;1770107;80;21021;-75
2021/12/30 02:10:40;;;;;;;94.17;36.80;;;;;;;-4.80;100.00;100219.58;1770039;81;21034;-76
2021/12/30 02:13:10;;;;;;;96.30;37.73;;;;;;;-4.79;100.00;100205.89;1770360;80;21023;-76
2021/12/30 02:15:38;;;;;;;95.47;38.78;;;;;;;-4.71;100.00;100221.10;1770479;80;21133;-72
2021/12/30 02:18:05;;;;;;;87.87;36.80;;;;;;;-4.71;100.00;100223.67;1770355;80;21043;-73
2021/12/30 02:20:49;;;;;;;93.43;38.17;;;;;;;-4.70;100.00;100224.11;1770265;81;21512;-73
2021/12/30 02:23:27;;;;;;;89.03;36.47;;;;;;;-4.68;100.00;100218.60;1770358;81;21056;-73
2021/12/30 02:26:02;;;;;;;94.10;40.43;;;;;;;-4.67;100.00;100228.03;1770413;80;21666;-74
2021/12/30 02:28:31;;;;;;;91.60;39.93;;;;;;;-4.65;100.00;100227.66;1770223;80;21969;-73
2021/12/30 02:31:03;;;;;;;98.03;39.80;;;;;;;-4.67;100.00;100224.18;1770373;80;21629;-73
2021/12/30 02:33:30;;;;;;;92.72;39.23;;;;;;;-4.70;100.00;100218.97;1770678;80;21080;-74
2021/12/30 02:35:57;;;;;;;71.42;31.23;;;;;;;-4.70;100.00;100224.11;1770156;81;21053;-73
2021/12/30 02:38:23;;;;;;;59.30;26.07;;;;;;;-4.70;100.00;100225.39;1771053;81;21068;-78
2021/12/30 02:40:55;;;;;;;90.13;35.70;;;;;;;-4.68;100.00;100227.59;1770486;80;21133;-76
2021/12/30 02:43:28;;;;;;;71.13;31.57;;;;;;;-4.65;100.00;100226.38;1770683;81;21041;-76
2021/12/30 02:45:56;;;;;;;71.07;30.20;;;;;;;-4.67;100.00;100224.18;1770361;81;21029;-75
2021/12/30 02:48:26;;;;;;;79.80;33.10;;;;;;;-4.66;100.00;100215.66;1770581;81;21042;-76
2021/12/30 02:50:55;;;;;;;;;;;;;;;-4.66;100.00;100225.94;1772946;80;21061;-75
2021/12/30 02:53:22;;;;;;;86.97;35.87;;;;;;;-4.68;100.00;100225.89;1770615;81;21054;-76
2021/12/30 02:55:49;;;;;;;88.00;37.15;;;;;;;-4.68;100.00;100222.45;1770121;80;20998;-76
2021/12/30 02:58:17;;;;;;;73.77;31.10;;;;;;;-4.73;100.00;100223.63;1770023;81;21516;-76
2021/12/30 03:00:44;;;;;;;80.47;31.73;;;;;;;-4.82;100.00;100229.80;1770227;80;21112;-77
2021/12/30 03:03:20;;;;;;;79.53;31.80;;;;;;;-4.89;100.00;100236.47;1770778;80;21551;-79
2021/12/30 03:05:48;;;;;;;77.60;33.23;;;;;;;-5.02;100.00;100242.09;1769765;80;21131;-77
2021/12/30 03:08:15;;;;;;;78.03;32.47;;;;;;;-5.13;100.00;100246.06;1770428;80;21045;-78
2021/12/30 03:10:42;;;;;;;73.27;31.50;;;;;;;-5.18;100.00;100248.50;1770294;81;21028;-74
2021/12/30 03:13:10;;;;;;;77.60;33.57;;;;;;;-5.23;100.00;100246.64;1770166;81;21033;-74
2021/12/30 03:15:37;;;;;;;63.33;27.43;;;;;;;-5.25;100.00;100243.16;1770364;80;21049;-74
2021/12/30 03:18:05;;;;;;;77.27;33.43;;;;;;;-5.28;100.00;100244.81;1771772;80;21029;-74
2021/12/30 03:20:33;;;;;;;78.80;33.30;;;;;;;-5.24;100.00;100250.91;1772567;80;21428;-73
2021/12/30 03:23:00;;;;;;;79.17;32.00;;;;;;;-5.23;100.00;100259.48;1773515;81;21005;-74
2021/12/30 03:25:26;;;;;;;72.63;30.80;;;;;;;-5.25;100.00;100269.70;1772638;81;20950;-73
2021/12/30 03:27:53;;;;;;;70.00;29.00;;;;;;;-5.25;100.00;100271.40;1772235;80;21081;-74
2021/12/30 03:30:19;;;;;;;66.27;26.80;;;;;;;-5.28;100.00;100273.47;1769792;81;21531;-75
2021/12/30 03:32:46;;;;;;;65.47;28.37;;;;;;;-5.30;100.00;100272.13;1770422;80;21056;-74
2021/12/30 03:35:13;;;;;;;57.63;25.97;;;;;;;-5.31;100.00;100281.95;1770244;81;21033;-75
2021/12/30 03:37:40;;;;;;;63.30;27.53;;;;;;;-5.36;100.00;100284.81;1770491;81;21043;-74
2021/12/30 03:40:13;;;;;;;62.83;24.50;;;;;;;-5.39;100.00;100287.27;1770126;80;21013;-72
2021/12/30 03:42:41;;;;;;;57.10;25.37;;;;;;;-5.40;100.00;100289.80;1770632;81;21076;-75
2021/12/30 03:45:10;;;;;;;66.23;28.93;;;;;;;-5.41;100.00;100294.04;1770131;80;21532;-75
2021/12/30 03:47:39;;;;;;;59.70;25.33;;;;;;;-5.38;100.00;100285.17;1770493;80;21606;-75
2021/12/30 03:50:07;;;;;;;55.33;23.83;;;;;;;-5.38;100.00;100286.45;1770341;80;21045;-72
2021/12/30 03:52:36;;;;;;;53.80;23.55;;;;;;;-5.37;100.00;100290.75;1770934;80;21013;-73
2021/12/30 03:55:03;;;;;;;50.00;22.33;;;;;;;-5.34;100.00;100291.25;1769856;80;21117;-72
2021/12/30 03:57:29;;;;;;;59.77;24.67;;;;;;;-5.37;100.00;100285.61;1770143;81;21560;-72
2021/12/30 03:59:56;;;;;;;40.80;19.70;;;;;;;-5.31;100.00;100295.21;1769897;81;21087;-72
2021/12/30 04:02:23;;;;;;;56.10;24.77;;;;;;;-5.28;100.00;100300.42;1770068;80;20999;-72
2021/12/30 04:04:49;;;;;;;53.40;23.53;;;;;;;-5.31;100.00;100289.66;1746841;80;21115;-72
2021/12/30 04:07:16;;;;;;;49.67;23.43;;;;;;;-5.29;100.00;100294.42;1739215;82;22035;-73
2021/12/30 04:09:43;;;;;;;53.47;25.03;;;;;;;-5.29;100.00;100293.14;1739372;82;21124;-72
2021/12/30 04:12:09;;;;;;;53.73;23.37;;;;;;;-5.29;100.00;100303.41;1739414;82;21065;-74
2021/12/30 04:14:37;;;;;;;52.90;23.63;;;;;;;-5.31;100.00;100303.78;1739574;82;21556;-74
2021/12/30 04:17:05;;;;;;;56.10;22.77;;;;;;;-5.36;100.00;100305.34;1739484;82;21076;-75
2021/12/30 04:19:32;;;;;;;52.87;23.23;;;;;;;-5.37;100.00;100307.44;1739365;82;21061;-74
2021/12/30 04:21:58;;;;;;;63.87;27.60;;;;;;;-5.40;100.00;100309.92;1739525;82;21049;-75
2021/12/30 04:24:25;;;;;;;53.20;22.07;;;;;;;-5.38;100.00;100314.69;1739415;82;21032;-75
2021/12/30 04:26:53;;;;;;;46.73;23.00;;;;;;;-5.38;100.00;100319.83;1739213;82;21060;-75
2021/12/30 04:29:20;;;;;;;59.30;26.60;;;;;;;-5.40;100.00;100329.59;1735796;82;21552;-74
2021/12/30 04:31:47;;;;;;;67.17;28.97;;;;;;;-5.32;100.00;100325.13;1735450;82;21130;-75
2021/12/30 04:34:14;;;;;;;64.10;28.30;;;;;;;-5.31;100.00;100326.02;1735581;82;21049;-76
2021/12/30 04:36:40;;;;;;;69.90;30.17;;;;;;;-5.32;100.00;100318.70;1735728;82;21544;-80
2021/12/30 04:39:07;;;;;;;70.30;27.63;;;;;;;-5.32;100.00;100322.55;1735834;82;20969;-80
2021/12/30 04:41:34;;;;;;;71.37;30.87;;;;;;;-5.35;100.00;100325.04;1751963;81;21092;-74
2021/12/30 04:44:00;;;;;;;70.13;28.53;;;;;;;-5.34;100.00;100335.75;1744372;81;21103;-73
2021/12/30 04:46:27;;;;;;;74.10;30.17;;;;;;;-5.32;100.00;100339.23;1734108;81;21556;-77
2021/12/30 04:48:58;;;;;;;73.67;28.37;;;;;;;-5.27;100.00;100342.84;1714474;81;21073;-77
2021/12/30 04:51:25;;;;;;;84.07;32.03;;;;;;;-5.22;100.00;100343.37;1738484;81;21108;-77
2021/12/30 04:53:51;;;;;;;105.17;34.83;;;;;;;-5.23;100.00;100342.50;1738664;81;21049;-77
2021/12/30 04:56:18;;;;;;;76.07;28.83;;;;;;;-5.22;100.00;100347.22;1734775;82;21694;-78
2021/12/30 04:58:45;;;;;;;82.07;31.50;;;;;;;-5.20;100.00;100354.56;1734945;82;21045;-78
2021/12/30 05:01:13;;;;;;;88.10;35.53;;;;;;;-5.21;100.00;100357.97;1735587;82;21052;-76
2021/12/30 05:03:40;;;;;;;82.70;34.23;;;;;;;-5.21;100.00;100357.97;1736889;81;21042;-76
2021/12/30 05:06:07;;;;;;;72.10;30.53;;;;;;;-5.21;100.00;100363.10;1754615;81;21032;-78
2021/12/30 05:08:34;;;;;;;65.60;27.87;;;;;;;-5.19;100.00;100365.30;1766180;81;21799;-77
2021/12/30 05:11:01;;;;;;;69.00;30.60;;;;;;;-5.16;100.00;100372.67;1766065;81;21006;-80
2021/12/30 05:13:27;;;;;;;73.00;30.77;;;;;;;-5.19;100.00;100375.16;1745617;81;21688;-78
2021/12/30 05:15:54;;;;;;;69.93;29.70;;;;;;;-5.18;100.00;100383.73;1754020;81;21069;-78
2021/12/30 05:18:30;;;;;;;72.40;30.20;;;;;;;-5.18;100.00;100377.30;1755184;81;21069;-67
2021/12/30 05:20:51;;;;;;;78.97;32.90;;;;;;;-5.20;100.00;100369.97;1747507;81;22149;-71
2021/12/30 05:23:18;;;;;;;68.23;27.90;;;;;;;-5.17;100.00;100371.36;1741189;81;21021;-72
2021/12/30 05:25:45;;;;;;;74.10;32.17;;;;;;;-5.16;100.00;100367.95;1738637;81;21340;-72
2021/12/30 05:28:12;;;;;;;76.30;32.40;;;;;;;-5.12;100.00;100359.52;1760349;80;21037;-76
2021/12/30 05:30:38;;;;;;;73.43;29.93;;;;;;;-5.11;100.00;100366.39;1758815;80;20970;-72
2021/12/30 05:33:05;;;;;;;73.07;31.90;;;;;;;-5.10;100.00;100371.58;1740229;82;21436;-72
2021/12/30 05:35:32;;;;;;;68.10;29.00;;;;;;;-5.07;100.00;100369.52;1753180;81;21073;-75
2021/12/30 05:38:01;;;;;;;85.53;32.30;;;;;;;-5.07;100.00;100363.96;1742365;81;21554;-76
2021/12/30 05:40:26;;;;;;;77.70;31.43;;;;;;;-5.03;100.00;100370.07;1781919;79;21184;-76
2021/12/30 05:42:53;;;;;;;74.53;32.63;;;;;;;-5.02;100.00;100374.37;1775502;79;20956;-73
2021/12/30 05:45:21;;;;;;;71.40;31.30;;;;;;;-5.01;100.00;100374.84;1764270;81;21155;-72
2021/12/30 05:47:51;;;;;;;77.50;31.77;;;;;;;-4.99;100.00;100383.47;1747112;79;20926;-73
2021/12/30 05:50:21;;;;;;;71.73;30.40;;;;;;;-4.98;100.00;100377.49;1749057;81;21138;-73
2021/12/30 05:52:49;;;;;;;73.10;29.47;;;;;;;-4.98;100.00;100377.49;1747285;81;21057;-74
2021/12/30 05:55:16;;;;;;;75.37;32.80;;;;;;;-4.96;100.00;100378.41;1747449;81;21109;-74
2021/12/30 05:57:43;;;;;;;79.87;32.33;;;;;;;-4.98;100.00;100384.34;1761342;81;21143;-73
2021/12/30 06:00:14;;;;;;;80.70;33.80;;;;;;;-4.98;100.00;100389.05;1755316;81;21025;-73
2021/12/30 06:02:41;;;;;;;78.20;31.52;;;;;;;-5.03;100.00;100384.20;1758606;79;21045;-72
2021/12/30 06:05:08;;;;;;;73.70;32.93;;;;;;;-5.09;100.00;100391.70;1750196;80;21084;-74
2021/12/30 06:07:36;;;;;;;76.13;33.37;;;;;;;-5.14;100.00;100384.28;1748931;81;20982;-73
2021/12/30 06:10:04;;;;;;;73.93;33.17;;;;;;;-5.16;100.00;100397.48;1760372;81;21948;-73
2021/12/30 06:12:32;;;;;;;74.50;32.77;;;;;;;-5.18;100.00;100400.42;1747328;81;21534;-74
2021/12/30 06:14:59;;;;;;;71.93;31.37;;;;;;;-5.20;100.00;100409.77;1748111;81;21012;-73
2021/12/30 06:17:26;;;;;;;79.80;35.20;;;;;;;-5.21;100.00;100409.31;1756111;81;21061;-73
2021/12/30 06:19:53;;;;;;;90.43;33.83;;;;;;;-5.20;100.00;100417.47;1741337;80;21077;-73
2021/12/30 06:22:21;;;;;;;88.37;34.90;;;;;;;-5.20;100.00;100419.65;1743200;81;21149;-72
2021/12/30 06:24:47;;;;;;;80.87;33.20;;;;;;;-5.19;100.00;100424.36;1739329;82;21068;-72
2021/12/30 06:27:13;;;;;;;145.73;50.60;;;;;;;-5.16;100.00;100433.44;1765222;81;21260;-73
2021/12/30 06:29:40;;;;;;;84.90;35.13;;;;;;;-5.14;100.00;100439.49;1766777;80;21037;-73
2021/12/30 06:32:07;;;;;;;91.90;36.67;;;;;;;-5.06;100.00;100436.77;1765677;81;21017;-73
2021/12/30 06:34:33;;;;;;;104.83;42.73;;;;;;;-4.96;100.00;100437.50;1765786;81;21489;-73
2021/12/30 06:37:00;;;;;;;102.37;39.50;;;;;;;-4.81;100.00;100438.77;1765597;81;21049;-72
2021/12/30 06:39:27;;;;;;;127.20;47.33;;;;;;;-4.71;100.00;100442.09;1765738;81;20994;-72
2021/12/30 06:41:53;;;;;;;94.20;39.03;;;;;;;-4.69;100.00;100439.16;1760870;81;21093;-72
2021/12/30 06:44:20;;;;;;;116.23;39.43;;;;;;;-4.67;100.00;100434.91;1765790;81;21021;-74
2021/12/30 06:46:54;;;;;;;97.43;38.50;;;;;;;-4.60;100.00;100434.29;1765563;81;21132;-73
2021/12/30 06:49:16;;;;;;;108.57;39.90;;;;;;;-4.57;100.00;100435.66;1743862;81;21049;-74
2021/12/30 06:51:43;;;;;;;105.33;40.10;;;;;;;-4.58;100.00;100426.18;1735536;82;21571;-73
2021/12/30 06:54:10;;;;;;;130.80;44.83;;;;;;;-4.63;100.00;100436.75;1735436;81;21077;-72
2021/12/30 06:56:38;;;;;;;111.37;43.43;;;;;;;-4.67;100.00;100440.05;1735475;81;21786;-75
2021/12/30 06:59:05;;;;;;;105.47;42.50;;;;;;;-4.69;100.00;100437.45;1752728;81;21540;-74
2021/12/30 07:01:31;;;;;;;107.90;43.60;;;;;;;-4.74;100.00;100433.89;1746505;81;21481;-74
2021/12/30 07:03:57;;;;;;;104.37;42.37;;;;;;;-4.74;100.00;100427.84;1747488;81;21041;-76
2021/12/30 07:06:24;;;;;;;116.93;46.20;;;;;;;-4.77;100.00;100422.63;1744475;81;21029;-74
2021/12/30 07:08:51;;;;;;;102.20;38.77;;;;;;;-4.76;100.00;100426.93;1743450;80;21552;-66
2021/12/30 07:11:18;;;;;;;95.47;37.77;;;;;;;-4.76;100.00;100429.50;1748642;81;21302;-66
2021/12/30 07:13:46;;;;;;;104.23;41.43;;;;;;;-4.77;100.00;100429.92;1737488;81;21600;-66
2021/12/30 07:16:13;;;;;;;101.40;41.77;;;;;;;-4.78;100.00;100429.89;1672025;84;21074;-67
2021/12/30 07:18:39;;;;;;;96.57;39.03;;;;;;;-4.79;100.00;100433.27;1754052;81;21061;-67
2021/12/30 07:21:06;;;;;;;103.47;43.40;;;;;;;-4.80;100.00;100431.13;1738740;81;21065;-66
2021/12/30 07:23:34;;;;;;;102.70;44.07;;;;;;;-4.76;100.00;100432.06;1738532;81;21033;-66
2021/12/30 07:26:00;;;;;;;106.93;41.63;;;;;;;-4.75;100.00;100434.69;1735030;82;21064;-66
2021/12/30 07:28:27;;;;;;;108.93;42.17;;;;;;;-4.75;100.00;100444.11;1735229;82;21052;-66
2021/12/30 07:30:54;;;;;;;110.00;42.27;;;;;;;-4.73;100.00;100442.45;1745839;81;21069;-66
2021/12/30 07:33:20;;;;;;;105.10;42.03;;;;;;;-4.74;100.00;100436.84;1765864;81;21009;-66
2021/12/30 07:35:46;;;;;;;122.50;46.67;;;;;;;-4.77;100.00;100434.19;1737906;80;21878;-65
2021/12/30 07:38:13;;;;;;;128.37;48.83;;;;;;;-4.78;100.00;100433.75;1736327;81;20995;-67
2021/12/30 07:40:40;;;;;;;109.13;43.20;;;;;;;-4.78;100.00;100432.47;1737357;81;21041;-67
2021/12/30 07:43:06;;;;;;;121.57;46.43;;;;;;;-4.76;100.00;100440.67;1749644;81;21540;-68
2021/12/30 07:45:33;;;;;;;98.70;41.27;;;;;;;-4.76;100.00;100438.48;1747246;81;21055;-68
2021/12/30 07:48:00;;;;;;;90.87;37.57;;;;;;;-4.75;100.00;100435.11;1751123;81;21176;-67
2021/12/30 07:50:27;;;;;;;107.17;42.77;;;;;;;-4.74;100.00;100432.98;1742859;81;21017;-68
2021/12/30 07:52:54;;;;;;;102.70;43.17;;;;;;;-4.75;100.00;100442.41;1754974;81;21089;-68
2021/12/30 07:55:20;;;;;;;116.13;46.43;;;;;;;-4.72;100.00;100442.91;1765169;81;22136;-67
2021/12/30 07:57:47;;;;;;;101.87;40.97;;;;;;;-4.70;100.00;100442.54;1762195;81;21533;-68
2021/12/30 08:00:17;;;;;;;103.93;40.73;;;;;;;-4.67;100.00;100452.89;1734887;82;21135;-69
2021/12/30 08:02:44;;;;;;;119.80;43.65;;;;;;;-4.64;100.00;100455.58;1735309;82;21679;-68
2021/12/30 08:05:12;;;;;;;117.83;45.97;;;;;;;-4.61;100.00;100454.37;1749407;81;21052;-68
2021/12/30 08:07:39;;;;;;;136.27;53.67;;;;;;;-4.57;100.00;100454.92;1761123;81;21568;-68
2021/12/30 08:10:12;;;;;;;118.70;45.97;;;;;;;-4.58;100.00;100455.73;1736263;81;21042;-68
2021/12/30 08:12:41;;;;;;;111.63;45.00;;;;;;;-4.58;100.00;100464.73;1745900;81;21029;-66
2021/12/30 08:15:08;;;;;;;189.13;65.77;;;;;;;-4.55;100.00;100463.56;1749532;81;21025;-68
2021/12/30 08:17:36;;;;;;;124.23;47.73;;;;;;;-4.53;100.00;100464.48;1753168;81;21584;-68
2021/12/30 08:20:07;;;;;;;111.43;45.20;;;;;;;-4.47;100.00;100461.20;1742794;81;21283;-68
2021/12/30 08:22:34;;;;;;;135.57;50.43;;;;;;;-4.44;100.00;100464.75;1748675;81;21053;-68
2021/12/30 08:25:01;;;;;;;114.80;47.37;;;;;;;-4.37;100.00;100468.76;1748606;81;21952;-68
2021/12/30 08:27:27;;;;;;;199.60;67.47;;;;;;;-4.27;100.00;100461.78;1748756;81;22078;-68
2021/12/30 08:29:54;;;;;;;114.30;48.10;;;;;;;-4.20;100.00;100458.55;1752766;80;21025;-68
2021/12/30 08:32:20;;;;;;;122.42;46.48;;;;;;;-4.15;100.00;100462.11;1754948;81;21009;-68
2021/12/30 08:34:47;;;;;;;133.37;53.17;;;;;;;-4.11;100.00;100451.51;1749906;81;21106;-68
2021/12/30 08:37:15;;;;;;;120.95;49.48;;;;;;;-4.06;100.00;100457.22;1747794;80;21119;-68
2021/12/30 08:39:44;;;;;;;172.03;63.57;;;;;;;-4.05;100.00;100453.84;1743782;81;21079;-69
2021/12/30 08:42:26;;;;;;;138.43;52.63;;;;;;;-4.08;100.00;100449.88;1751528;80;21017;-67
2021/12/30 08:44:56;;;;;;;130.65;51.13;;;;;;;-4.08;100.00;100447.72;1755139;80;21069;-67
2021/12/30 08:47:24;;;;;;;152.93;55.17;;;;;;;-4.04;100.00;100447.84;1751166;80;21053;-67
2021/12/30 08:49:51;;;;;;;121.87;48.70;;;;;;;-3.99;100.00;100444.53;1755269;80;21791;-67
2021/12/30 08:52:19;;;;;;;116.85;48.28;;;;;;;-3.94;100.00;100451.95;1756030;81;21049;-67
2021/12/30 08:54:47;;;;;;;134.65;51.23;;;;;;;-3.92;100.00;100451.58;1740198;81;21040;-66
2021/12/30 08:57:15;;;;;;;108.90;45.33;;;;;;;-3.95;100.00;100456.66;1754491;80;21556;-66
2021/12/30 08:59:41;;;;;;;142.67;53.93;;;;;;;-4.01;100.00;100450.91;1749648;80;21093;-68
2021/12/30 09:02:09;;;;;;;117.15;47.55;;;;;;;-4.05;100.00;100455.52;1747755;81;21150;-66
2021/12/30 09:04:36;;;;;;;118.47;48.15;;;;;;;-4.10;100.00;100447.67;1746150;81;21081;-66
2021/12/30 09:07:04;;;;;;;140.53;53.70;;;;;;;-4.07;100.00;100446.87;1748065;81;21079;-67
2021/12/30 09:09:32;;;;;;;115.05;47.05;;;;;;;-4.02;100.00;100453.05;1753489;80;21033;-66
2021/12/30 09:11:59;;;;;;;123.87;51.98;;;;;;;-3.94;100.00;100451.95;1753349;80;21567;-67
2021/12/30 09:14:26;;;;;;;127.00;49.70;;;;;;;-3.94;100.00;100446.80;1753594;81;21153;-67
2021/12/30 09:16:54;;;;;;;114.83;44.63;;;;;;;-3.93;100.00;100453.72;1749814;80;21053;-66
2021/12/30 09:19:21;;;;;;;136.17;51.37;;;;;;;-3.90;100.00;100455.06;1764999;81;20978;-66
2021/12/30 09:21:49;;;;;;;111.70;45.20;;;;;;;-3.89;100.00;100456.41;1739566;82;20974;-66
2021/12/30 09:24:16;;;;;;;106.03;40.90;;;;;;;-3.92;100.00;100452.45;1739690;82;21568;-67
2021/12/30 09:26:42;;;;;;;133.07;50.00;;;;;;;-3.90;100.00;100447.35;1739603;81;21850;-67
2021/12/30 09:29:12;;;;;;;114.67;45.12;;;;;;;-3.86;100.00;100446.61;1756175;80;21097;-66
2021/12/30 09:31:46;;;;;;;112.30;42.90;;;;;;;-3.81;100.00;100445.02;1754247;80;21029;-67
2021/12/30 09:34:13;;;;;;;109.33;42.80;;;;;;;-3.79;100.00;100447.22;1759844;80;21033;-68
2021/12/30 09:36:41;;;;;;;100.80;40.57;;;;;;;-3.85;100.00;100443.19;1758018;80;20989;-65
2021/12/30 09:39:11;;;;;;;117.07;48.50;;;;;;;-3.85;100.00;100444.47;1756971;80;21130;-69
2021/12/30 09:44:24;;;;;;;117.90;45.47;;;;;;;-3.80;100.00;100444.17;1805508;78;22770;-67
2021/12/30 09:46:51;;;;;;;138.90;52.20;;;;;;;-3.84;100.00;100438.09;1776078;80;20969;-68
2021/12/30 09:49:18;;;;;;;108.27;42.60;;;;;;;-3.84;100.00;100434.23;1770655;80;22056;-67
2021/12/30 09:51:45;;;;;;;116.47;46.47;;;;;;;-3.75;100.00;100432.31;1767947;80;21074;-66
2021/12/30 09:54:13;;;;;;;123.93;45.30;;;;;;;-3.69;100.00;100423.45;1767644;80;21024;-67
2021/12/30 09:56:42;;;;;;;111.57;42.70;;;;;;;-3.71;100.00;100416.09;1771080;80;21520;-67
2021/12/30 09:59:09;;;;;;;134.53;51.57;;;;;;;-3.66;100.00;100413.25;1766579;80;21072;-67
2021/12/30 10:01:40;;;;;;;100.85;39.58;;;;;;;-3.65;100.00;100419.26;1760261;80;21207;-67
2021/12/30 10:04:09;;;;;;;117.50;43.90;;;;;;;-3.63;100.00;100419.75;1755259;80;21657;-68
2021/12/30 10:06:48;;;;;;;124.25;45.30;;;;;;;-3.58;100.00;100414.71;1768340;80;21134;-68
2021/12/30 10:09:15;;;;;;;80.75;32.38;;;;;;;-3.63;100.00;100417.17;1776200;80;21016;-69
2021/12/30 10:11:45;;;;;;;121.35;42.83;;;;;;;-3.68;100.00;100423.92;1759945;80;21139;-68
2021/12/30 10:14:12;;;;;;;100.67;36.88;;;;;;;-3.73;100.00;100419.05;1768607;80;21102;-68
2021/12/30 10:16:39;;;;;;;93.95;38.28;;;;;;;-3.79;100.00;100426.63;1760857;80;21036;-69
2021/12/30 10:19:06;;;;;;;136.88;49.20;;;;;;;-3.81;100.00;100425.72;1758267;80;21016;-69
2021/12/30 10:21:41;;;;;;;91.60;36.10;;;;;;;-3.83;100.00;100416.66;1765638;80;21111;-69
2021/12/30 10:24:11;;;;;;;101.43;39.40;;;;;;;-3.78;100.00;100418.06;1778272;80;21516;-68
2021/12/30 10:26:57;;;;;;;120.82;41.60;;;;;;;-3.73;100.00;100415.19;1758485;80;21473;-69
2021/12/30 10:29:25;;;;;;;85.17;35.27;;;;;;;-3.74;100.00;100410.88;1777678;80;21056;-67
2021/12/30 10:31:53;;;;;;;115.87;44.17;;;;;;;-3.82;100.00;100405.95;1753170;80;21499;-68
2021/12/30 10:34:22;;;;;;;127.40;45.23;;;;;;;-3.87;100.00;100398.11;1774105;80;21516;-67
2021/12/30 10:36:49;;;;;;;97.50;37.85;;;;;;;-3.88;100.00;100403.23;1775441;80;21032;-67
2021/12/30 10:39:29;;;;;;;120.13;43.15;;;;;;;-3.85;100.00;100395.16;1756013;80;21077;-66
2021/12/30 10:42:15;;;;;;;88.62;35.17;;;;;;;-3.86;100.00;100392.56;1756971;80;21508;-67
2021/12/30 10:44:52;;;;;;;97.67;35.98;;;;;;;-3.89;100.00;100392.47;1740691;80;21056;-67
2021/12/30 10:47:24;;;;;;;127.47;45.60;;;;;;;-3.94;100.00;100387.62;1747633;81;21107;-65
2021/12/30 10:50:05;;;;;;;95.17;36.95;;;;;;;-3.98;100.00;100392.23;1752011;81;21087;-65
2021/12/30 10:52:33;;;;;;;105.22;42.70;;;;;;;-4.05;100.00;100389.91;1752752;81;21158;-67
2021/12/30 10:55:10;;;;;;;143.27;49.93;;;;;;;-4.00;100.00;100385.78;1749990;81;21889;-67
2021/12/30 10:57:36;;;;;;;95.77;38.58;;;;;;;-3.97;100.00;100394.86;1749384;80;21091;-68
2021/12/30 11:00:06;;;;;;;96.43;37.90;;;;;;;-3.99;100.00;100391.38;1749187;81;21033;-68
2021/12/30 11:02:33;;;;;;;100.65;37.13;;;;;;;-3.97;100.00;100385.85;1753157;81;21045;-68
2021/12/30 11:05:06;;;;;;;93.07;34.70;;;;;;;-3.99;100.00;100375.07;1750335;79;21121;-70